createdAt,value
2022-10-23T00:01:45.718Z,15.60
2022-10-23T00:04:16.195Z,15.60
2022-10-23T00:06:45.173Z,15.60
2022-10-23T00:09:16.235Z,15.60
2022-10-23T00:11:47.877Z,15.60
2022-10-23T00:14:17.037Z,15.50
2022-10-23T00:16:45.100Z,15.50
2022-10-23T00:19:13.022Z,15.50
2022-10-23T00:21:41.081Z,15.50
2022-10-23T00:26:42.624Z,15.40
2022-10-23T00:29:12.551Z,15.40
2022-10-23T00:31:40.391Z,15.40
2022-10-23T00:34:09.158Z,15.30
2022-10-23T00:36:37.104Z,15.30
2022-10-23T00:39:05.155Z,15.30
2022-10-23T00:41:33.224Z,15.30
2022-10-23T00:44:06.394Z,15.20
2022-10-23T00:46:36.486Z,15.20
2022-10-23T00:49:06.282Z,15.20
2022-10-23T00:51:39.982Z,15.20
2022-10-23T00:54:25.052Z,15.20
2022-10-23T00:56:55.570Z,15.20
2022-10-23T00:59:23.626Z,15.20
2022-10-23T01:01:52.929Z,15.20
2022-10-23T01:04:21.223Z,15.20
2022-10-23T01:06:58.776Z,15.30
2022-10-23T01:09:33.207Z,15.10
2022-10-23T01:12:09.461Z,15.10
2022-10-23T01:14:43.860Z,15.10
2022-10-23T01:17:20.775Z,15.10
2022-10-23T01:20:02.154Z,15.10
2022-10-23T01:22:49.232Z,15.00
2022-10-23T01:25:29.087Z,15.00
2022-10-23T01:28:02.387Z,15.00
2022-10-23T01:30:31.619Z,15.00
2022-10-23T01:33:04.820Z,15.00
2022-10-23T01:35:37.752Z,14.90
2022-10-23T01:38:10.399Z,14.90
2022-10-23T01:40:45.269Z,14.90
2022-10-23T01:43:19.067Z,14.90
2022-10-23T01:45:51.693Z,14.80
2022-10-23T01:48:24.659Z,14.80
2022-10-23T01:50:55.634Z,14.80
2022-10-23T01:53:23.896Z,14.80
2022-10-23T01:55:52.912Z,14.80
2022-10-23T01:58:22.625Z,14.80
2022-10-23T02:00:52.716Z,14.70
2022-10-23T02:03:22.404Z,14.70
2022-10-23T02:05:50.438Z,14.70
2022-10-23T02:08:18.433Z,14.70
2022-10-23T02:10:51.759Z,14.70
2022-10-23T02:13:27.236Z,14.60
2022-10-23T02:16:02.823Z,14.60
2022-10-23T02:18:38.488Z,14.60
2022-10-23T02:21:13.042Z,14.60
2022-10-23T02:23:45.098Z,14.60
2022-10-23T02:26:20.247Z,14.60
2022-10-23T02:28:53.046Z,14.50
2022-10-23T02:31:23.128Z,14.50
2022-10-23T02:33:51.068Z,14.50
2022-10-23T02:36:20.606Z,14.40
2022-10-23T02:38:48.421Z,14.40
2022-10-23T02:41:26.569Z,14.40
2022-10-23T02:44:11.624Z,14.40
2022-10-23T02:46:50.888Z,14.40
2022-10-23T02:49:25.106Z,14.40
2022-10-23T02:52:02.657Z,14.40
2022-10-23T02:54:43.765Z,14.30
2022-10-23T02:57:21.112Z,14.30
2022-10-23T02:59:57.191Z,14.30
2022-10-23T03:02:27.717Z,14.30
2022-10-23T03:04:57.354Z,14.30
2022-10-23T03:07:27.495Z,14.30
2022-10-23T03:09:55.403Z,14.20
2022-10-23T03:12:23.234Z,14.20
2022-10-23T03:14:52.391Z,14.20
2022-10-23T03:17:20.176Z,14.20
2022-10-23T03:19:47.938Z,14.20
2022-10-23T03:22:15.732Z,14.20
2022-10-23T03:24:43.798Z,14.20
2022-10-23T03:27:12.035Z,14.20
2022-10-23T03:29:39.907Z,14.20
2022-10-23T03:32:09.455Z,14.10
2022-10-23T03:34:37.259Z,14.10
2022-10-23T03:37:05.291Z,14.10
2022-10-23T03:39:33.096Z,14.10
2022-10-23T03:42:01.398Z,14.10
2022-10-23T03:44:31.016Z,14.10
2022-10-23T03:46:59.095Z,14.10
2022-10-23T03:49:28.237Z,14.10
2022-10-23T03:51:56.063Z,14.10
2022-10-23T03:54:25.557Z,14.10
2022-10-23T03:56:56.627Z,14.10
2022-10-23T03:59:25.486Z,14.20
2022-10-23T04:01:53.635Z,14.20
2022-10-23T04:04:21.483Z,14.20
2022-10-23T04:06:50.589Z,14.20
2022-10-23T04:09:18.656Z,14.20
2022-10-23T04:11:46.648Z,14.30
2022-10-23T04:14:15.263Z,14.20
2022-10-23T04:16:43.542Z,14.30
2022-10-23T04:19:11.540Z,14.20
2022-10-23T04:21:39.292Z,14.20
2022-10-23T04:24:08.880Z,14.20
2022-10-23T04:26:36.674Z,14.30
2022-10-23T04:29:04.550Z,14.40
2022-10-23T04:31:32.388Z,14.40
2022-10-23T04:34:00.274Z,14.40
2022-10-23T04:36:28.240Z,14.40
2022-10-23T04:38:56.028Z,14.50
2022-10-23T04:41:25.224Z,14.50
2022-10-23T04:43:53.079Z,14.50
2022-10-23T04:46:20.834Z,14.60
2022-10-23T04:48:48.650Z,14.60
2022-10-23T04:51:16.507Z,14.70
2022-10-23T04:53:44.267Z,14.60
2022-10-23T04:56:15.286Z,14.80
2022-10-23T04:58:44.426Z,14.80
2022-10-23T05:01:12.661Z,14.80
2022-10-23T05:03:40.539Z,14.80
2022-10-23T05:06:08.558Z,14.90
2022-10-23T05:08:36.803Z,14.90
2022-10-23T05:11:05.076Z,14.90
2022-10-23T05:13:32.881Z,15.00
2022-10-23T05:16:02.107Z,16.90
2022-10-23T05:18:33.148Z,15.00
2022-10-23T05:21:06.611Z,15.00
2022-10-23T05:23:36.231Z,15.10
2022-10-23T05:26:04.787Z,15.10
2022-10-23T05:28:32.604Z,15.10
2022-10-23T05:31:04.800Z,15.10
2022-10-23T05:33:33.831Z,15.20
2022-10-23T05:36:02.520Z,15.20
2022-10-23T05:38:34.376Z,15.20
2022-10-23T05:41:02.238Z,15.30
2022-10-23T05:43:31.347Z,15.30
2022-10-23T05:46:00.707Z,15.30
2022-10-23T05:48:34.846Z,15.30
2022-10-23T05:51:06.813Z,15.40
2022-10-23T05:53:37.430Z,15.40
2022-10-23T05:56:10.019Z,15.40
2022-10-23T05:58:38.435Z,15.50
2022-10-23T06:01:09.371Z,15.50
2022-10-23T06:03:38.420Z,15.50
2022-10-23T06:06:07.584Z,15.50
2022-10-23T06:08:36.655Z,15.50
2022-10-23T06:11:08.881Z,15.60
2022-10-23T06:13:36.764Z,15.60
2022-10-23T06:16:13.091Z,15.60
2022-10-23T06:18:41.215Z,15.60
2022-10-23T06:21:09.804Z,15.60
2022-10-23T06:23:39.236Z,15.70
2022-10-23T06:26:08.819Z,15.70
2022-10-23T06:28:37.210Z,15.70
2022-10-23T06:31:06.715Z,15.70
2022-10-23T06:33:36.535Z,15.70
2022-10-23T06:36:05.486Z,15.70
2022-10-23T06:38:36.772Z,15.70
2022-10-23T06:41:05.799Z,15.70
2022-10-23T06:43:33.632Z,15.80
2022-10-23T06:46:03.064Z,15.80
2022-10-23T06:48:31.124Z,15.80
2022-10-23T06:51:00.992Z,15.80
2022-10-23T06:53:28.790Z,15.80
2022-10-23T06:56:00.410Z,15.80
2022-10-23T06:58:28.688Z,15.80
2022-10-23T07:00:56.922Z,15.80
2022-10-23T07:03:24.755Z,15.80
2022-10-23T07:05:52.548Z,15.90
2022-10-23T07:08:22.042Z,17.10
2022-10-23T07:10:49.927Z,15.90
2022-10-23T07:13:17.767Z,15.90
2022-10-23T07:15:45.701Z,15.90
2022-10-23T07:18:15.167Z,15.90
2022-10-23T07:20:43.346Z,18.50
2022-10-23T07:23:12.732Z,16.00
2022-10-23T07:25:41.864Z,16.00
2022-10-23T07:28:09.659Z,16.00
2022-10-23T07:30:37.471Z,16.00
2022-10-23T07:33:05.298Z,16.10
2022-10-23T07:35:35.666Z,16.10
2022-10-23T07:38:06.426Z,16.10
2022-10-23T07:40:34.296Z,16.10
2022-10-23T07:43:03.495Z,16.20
2022-10-23T07:45:31.255Z,16.20
2022-10-23T07:47:59.108Z,16.30
2022-10-23T07:50:27.092Z,16.30
2022-10-23T07:52:54.955Z,16.30
2022-10-23T07:55:22.770Z,16.30
2022-10-23T07:57:50.667Z,16.40
2022-10-23T08:00:20.372Z,16.40
2022-10-23T08:02:48.251Z,16.40
2022-10-23T08:05:16.043Z,16.50
2022-10-23T08:07:43.817Z,16.50
2022-10-23T08:10:11.611Z,16.50
2022-10-23T08:12:39.419Z,16.50
2022-10-23T08:15:08.097Z,16.60
2022-10-23T08:18:31.056Z,16.60
2022-10-23T08:21:03.371Z,16.70
2022-10-23T08:23:31.615Z,16.70
2022-10-23T08:26:00.256Z,16.80
2022-10-23T08:28:28.138Z,16.80
2022-10-23T08:30:56.884Z,16.80
2022-10-23T08:33:24.881Z,16.80
2022-10-23T08:35:53.000Z,16.80
2022-10-23T08:38:23.239Z,19.90
2022-10-23T08:40:51.301Z,16.80
2022-10-23T08:43:25.789Z,16.90
2022-10-23T08:45:57.369Z,16.90
2022-10-23T08:48:29.402Z,17.00
2022-10-23T08:51:00.553Z,17.10
2022-10-23T08:53:37.145Z,17.10
2022-10-23T08:56:12.781Z,17.20
2022-10-23T08:58:46.033Z,17.20
2022-10-23T09:01:30.374Z,17.20
2022-10-23T09:03:58.639Z,17.20
2022-10-23T09:06:35.285Z,17.30
2022-10-23T09:09:21.769Z,17.40
2022-10-23T09:12:00.593Z,17.40
2022-10-23T09:15:07.811Z,17.50
2022-10-23T09:17:39.055Z,17.50
2022-10-23T09:20:15.239Z,17.50
2022-10-23T09:22:44.438Z,17.60
2022-10-23T09:25:19.743Z,17.60
2022-10-23T09:27:51.875Z,17.70
2022-10-23T09:30:32.784Z,17.70
2022-10-23T09:33:01.583Z,17.70
2022-10-23T09:35:31.114Z,17.90
2022-10-23T09:37:59.648Z,17.80
2022-10-23T09:40:34.388Z,17.80
2022-10-23T09:43:05.030Z,17.80
2022-10-23T09:45:35.586Z,17.80
2022-10-23T09:48:15.107Z,17.90
2022-10-23T09:50:50.851Z,17.90
2022-10-23T09:53:24.057Z,17.90
2022-10-23T09:55:55.211Z,17.90
2022-10-23T09:58:30.495Z,17.90
2022-10-23T10:00:58.442Z,17.90
2022-10-23T10:03:26.797Z,18.00
2022-10-23T10:05:58.179Z,18.00
2022-10-23T10:08:33.227Z,19.40
2022-10-23T10:11:10.781Z,19.20
2022-10-23T10:14:08.185Z,19.20
2022-10-23T10:16:45.552Z,18.10
2022-10-23T10:19:29.781Z,18.10
2022-10-23T10:22:08.786Z,18.10
2022-10-23T10:24:45.323Z,19.10
2022-10-23T10:27:23.165Z,20.90
2022-10-23T10:30:02.157Z,18.20
2022-10-23T10:32:39.355Z,18.30
2022-10-23T10:35:23.753Z,18.30
2022-10-23T10:38:39.371Z,18.30
2022-10-23T10:41:31.508Z,18.30
2022-10-23T10:44:20.657Z,18.40
2022-10-23T10:46:56.704Z,18.40
2022-10-23T10:49:30.576Z,18.50
2022-10-23T10:52:09.220Z,19.10
2022-10-23T10:54:50.344Z,18.50
2022-10-23T10:57:28.452Z,18.60
2022-10-23T11:00:02.422Z,21.40
2022-10-23T11:02:36.384Z,20.70
2022-10-23T11:05:17.055Z,18.70
2022-10-23T11:07:58.144Z,18.70
2022-10-23T11:10:26.384Z,18.70
2022-10-23T11:12:54.725Z,18.80
2022-10-23T11:15:29.631Z,18.80
2022-10-23T11:18:01.968Z,18.90
2022-10-23T11:20:53.590Z,18.90
2022-10-23T11:23:43.572Z,18.90
2022-10-23T11:26:27.939Z,19.00
2022-10-23T11:29:14.299Z,19.00
2022-10-23T11:31:54.516Z,19.10
2022-10-23T11:34:50.853Z,19.10
2022-10-23T11:37:19.841Z,21.90
2022-10-23T11:40:02.586Z,19.30
2022-10-23T11:42:35.511Z,21.40
2022-10-23T11:45:03.755Z,19.40
2022-10-23T11:47:40.068Z,19.40
2022-10-23T11:50:18.353Z,19.60
2022-10-23T11:53:19.915Z,19.60
2022-10-23T11:56:04.337Z,19.70
2022-10-23T11:58:44.667Z,19.80
2022-10-23T12:01:38.100Z,19.80
2022-10-23T12:04:21.687Z,19.90
2022-10-23T12:06:52.250Z,20.00
2022-10-23T12:09:27.367Z,20.00
2022-10-23T12:12:19.356Z,21.60
2022-10-23T12:14:49.442Z,20.10
2022-10-23T12:17:36.795Z,22.90
2022-10-23T12:20:27.491Z,21.00
2022-10-23T12:23:36.949Z,20.30
2022-10-23T12:26:21.736Z,20.30
2022-10-23T12:28:55.872Z,20.40
2022-10-23T12:31:43.095Z,20.40
2022-10-23T12:34:27.879Z,20.50
2022-10-23T12:37:08.575Z,20.50
2022-10-23T12:39:39.240Z,20.50
2022-10-23T12:42:12.965Z,20.60
2022-10-23T12:44:41.017Z,20.60
2022-10-23T12:47:16.372Z,20.60
2022-10-23T12:49:49.917Z,20.70
2022-10-23T12:52:24.468Z,20.70
2022-10-23T12:54:52.677Z,20.80
2022-10-23T12:57:24.110Z,20.80
2022-10-23T12:59:56.439Z,20.80
2022-10-23T13:02:26.656Z,20.90
2022-10-23T13:04:56.620Z,22.50
2022-10-23T13:07:29.535Z,20.90
2022-10-23T13:09:59.021Z,21.00
2022-10-23T13:12:30.098Z,22.20
2022-10-23T13:15:03.332Z,21.10
2022-10-23T13:17:40.632Z,21.10
2022-10-23T13:20:21.637Z,21.10
2022-10-23T13:23:00.577Z,24.10
2022-10-23T13:25:30.961Z,21.20
2022-10-23T13:28:17.173Z,22.90
2022-10-23T13:30:47.110Z,22.00
2022-10-23T13:33:16.681Z,21.30
2022-10-23T13:35:44.566Z,21.30
2022-10-23T13:38:13.968Z,21.30
2022-10-23T13:40:41.960Z,21.80
2022-10-23T13:43:19.033Z,23.10
2022-10-23T13:45:47.190Z,23.70
2022-10-23T13:48:16.178Z,21.50
2022-10-23T13:50:44.152Z,24.50
2022-10-23T13:53:13.826Z,21.50
2022-10-23T13:55:43.913Z,21.60
2022-10-23T13:58:12.054Z,21.60
2022-10-23T14:00:43.183Z,21.60
2022-10-23T14:03:11.570Z,21.70
2022-10-23T14:05:39.645Z,22.10
2022-10-23T14:08:07.809Z,21.70
2022-10-23T14:10:37.325Z,23.40
2022-10-23T14:13:05.242Z,21.70
2022-10-23T14:15:33.171Z,21.70
2022-10-23T14:18:04.558Z,21.70
2022-10-23T14:20:35.364Z,21.70
2022-10-23T14:23:03.198Z,21.70
2022-10-23T14:25:31.633Z,21.70
2022-10-23T14:28:01.010Z,21.70
2022-10-23T14:30:29.013Z,21.70
2022-10-23T14:32:56.980Z,21.80
2022-10-23T14:35:25.936Z,21.90
2022-10-23T14:37:53.982Z,22.00
2022-10-23T14:40:22.068Z,22.10
2022-10-23T14:42:50.128Z,22.20
2022-10-23T14:45:19.495Z,23.20
2022-10-23T14:47:47.452Z,24.20
2022-10-23T14:50:16.231Z,22.20
2022-10-23T14:52:44.177Z,22.20
2022-10-23T14:55:12.039Z,24.50
2022-10-23T14:57:40.153Z,22.10
2022-10-23T15:00:09.413Z,22.10
2022-10-23T15:02:38.639Z,22.00
2022-10-23T15:05:07.500Z,23.00
2022-10-23T15:07:35.561Z,22.00
2022-10-23T15:10:04.277Z,22.00
2022-10-23T15:12:32.355Z,22.10
2022-10-23T15:15:00.457Z,21.90
2022-10-23T15:17:28.465Z,21.90
2022-10-23T15:19:57.975Z,21.80
2022-10-23T15:22:26.466Z,21.80
2022-10-23T15:24:55.300Z,21.70
2022-10-23T15:27:23.464Z,21.70
2022-10-23T15:29:51.348Z,21.60
2022-10-23T15:32:19.373Z,21.60
2022-10-23T15:34:49.586Z,21.60
2022-10-23T15:37:20.934Z,21.50
2022-10-23T15:39:48.989Z,21.50
2022-10-23T15:42:18.790Z,21.50
2022-10-23T15:44:46.790Z,22.70
2022-10-23T15:47:14.856Z,21.40
2022-10-23T15:49:43.028Z,21.40
2022-10-23T15:52:11.623Z,21.40
2022-10-23T15:54:40.905Z,23.70
2022-10-23T15:57:08.916Z,22.70
2022-10-23T15:59:37.227Z,21.30
2022-10-23T16:02:06.289Z,21.30
2022-10-23T16:04:35.501Z,21.20
2022-10-23T16:07:03.460Z,21.20
2022-10-23T16:09:31.514Z,21.20
2022-10-23T16:12:00.852Z,21.20
2022-10-23T16:14:28.855Z,21.20
2022-10-23T16:16:56.931Z,21.10
2022-10-23T16:19:24.923Z,21.10
2022-10-23T16:21:53.010Z,21.00
2022-10-23T16:24:21.000Z,21.10
2022-10-23T16:26:52.918Z,21.10
2022-10-23T16:29:23.708Z,21.00
2022-10-23T16:31:51.676Z,21.00
2022-10-23T16:34:19.927Z,21.00
2022-10-23T16:36:48.416Z,21.00
2022-10-23T16:39:18.093Z,21.00
2022-10-23T16:41:46.001Z,21.00
2022-10-23T16:44:13.905Z,22.40
2022-10-23T16:46:43.410Z,21.00
2022-10-23T16:49:11.527Z,22.20
2022-10-23T16:51:39.454Z,21.00
2022-10-23T16:54:07.628Z,20.90
2022-10-23T16:56:35.497Z,21.50
2022-10-23T16:59:03.559Z,22.80
2022-10-23T17:01:33.295Z,20.90
2022-10-23T17:04:03.084Z,20.90
2022-10-23T17:06:33.265Z,20.90
2022-10-23T17:09:02.637Z,23.80
2022-10-23T17:11:32.831Z,20.80
2022-10-23T17:14:02.671Z,20.80
2022-10-23T17:16:34.392Z,20.70
2022-10-23T17:19:16.010Z,20.70
2022-10-23T17:21:44.838Z,20.70
2022-10-23T17:24:13.383Z,22.30
2022-10-23T17:26:42.298Z,20.70
2022-10-23T17:29:13.607Z,20.70
2022-10-23T17:31:44.401Z,20.70
2022-10-23T17:34:15.812Z,20.70
2022-10-23T17:36:46.115Z,20.60
2022-10-23T17:39:17.203Z,20.60
2022-10-23T17:41:46.619Z,20.60
2022-10-23T17:44:15.091Z,20.60
2022-10-23T17:46:43.146Z,20.50
2022-10-23T17:49:12.966Z,20.50
2022-10-23T17:51:40.803Z,20.50
2022-10-23T17:54:11.816Z,20.50
2022-10-23T17:56:40.683Z,20.50
2022-10-23T17:59:11.445Z,20.50
2022-10-23T18:01:40.216Z,20.50
2022-10-23T18:04:09.271Z,20.50
2022-10-23T18:06:43.383Z,20.60
2022-10-23T18:09:12.169Z,21.70
2022-10-23T18:11:45.340Z,20.50
2022-10-23T18:14:16.665Z,20.50
2022-10-23T18:16:45.627Z,20.50
2022-10-23T18:19:14.568Z,20.50
2022-10-23T18:21:44.096Z,20.80
2022-10-23T18:24:12.976Z,21.30
2022-10-23T18:26:42.559Z,21.10
2022-10-23T18:29:17.300Z,20.60
2022-10-23T18:31:48.253Z,21.70
2022-10-23T18:34:18.983Z,21.90
2022-10-23T18:36:49.571Z,20.50
2022-10-23T18:39:22.178Z,21.30
2022-10-23T18:41:53.093Z,22.10
2022-10-23T18:44:22.322Z,20.60
2022-10-23T18:46:51.066Z,20.70
2022-10-23T18:49:20.416Z,20.70
2022-10-23T18:51:50.773Z,22.30
2022-10-23T18:54:20.995Z,20.80
2022-10-23T18:56:49.425Z,20.80
2022-10-23T18:59:20.234Z,20.80
2022-10-23T19:01:48.703Z,20.80
2022-10-23T19:04:17.988Z,20.80
2022-10-23T19:06:46.973Z,20.80
2022-10-23T19:09:16.448Z,23.20
2022-10-23T19:11:45.261Z,20.80
2022-10-23T19:14:13.754Z,22.40
2022-10-23T19:16:45.339Z,20.90
2022-10-23T19:19:17.749Z,20.80
2022-10-23T19:21:46.544Z,20.80
2022-10-23T19:24:20.330Z,20.80
2022-10-23T19:26:48.688Z,20.70
2022-10-23T19:29:20.998Z,20.70
2022-10-23T19:31:49.971Z,20.70
2022-10-23T19:34:19.881Z,20.70
2022-10-23T19:36:48.696Z,20.60
2022-10-23T19:39:18.465Z,23.90
2022-10-23T19:41:46.713Z,20.60
2022-10-23T19:44:15.426Z,20.50
2022-10-23T19:46:43.482Z,20.50
2022-10-23T19:49:11.936Z,20.60
2022-10-23T19:51:40.254Z,20.40
2022-10-23T19:54:09.871Z,20.40
2022-10-23T19:56:39.498Z,20.40
2022-10-23T19:59:08.015Z,20.30
2022-10-23T20:01:36.203Z,18.50
2022-10-23T20:04:04.439Z,20.30
2022-10-23T20:06:34.522Z,20.20
2022-10-23T20:09:04.887Z,22.00
2022-10-23T20:11:33.253Z,20.60
2022-10-23T20:14:02.538Z,20.20
2022-10-23T20:16:31.977Z,20.10
2022-10-23T20:19:02.653Z,20.10
2022-10-23T20:21:31.272Z,20.10
2022-10-23T20:24:00.235Z,20.10
2022-10-23T20:26:28.360Z,20.80
2022-10-23T20:28:57.951Z,21.40
2022-10-23T20:31:28.270Z,20.00
2022-10-23T20:33:57.446Z,19.90
2022-10-23T20:36:27.908Z,19.90
2022-10-23T20:38:56.482Z,20.00
2022-10-23T20:41:27.084Z,19.80
2022-10-23T20:43:56.626Z,19.70
2022-10-23T20:46:25.046Z,22.20
2022-10-23T20:48:54.617Z,19.70
2022-10-23T20:51:24.284Z,21.60
2022-10-23T20:53:54.453Z,19.60
2022-10-23T20:56:29.798Z,19.60
2022-10-23T20:58:58.169Z,19.50
2022-10-23T21:01:26.803Z,22.00
2022-10-23T21:03:58.108Z,19.40
2022-10-23T21:06:27.184Z,19.40
2022-10-23T21:08:56.672Z,19.40
2022-10-23T21:11:25.164Z,19.30
2022-10-23T21:13:53.484Z,19.30
2022-10-23T21:16:27.650Z,21.10
2022-10-23T21:18:58.099Z,20.90
2022-10-23T21:21:27.358Z,19.20
2022-10-23T21:23:57.994Z,19.20
2022-10-23T21:26:26.603Z,19.20
2022-10-23T21:29:01.132Z,19.90
2022-10-23T21:31:43.297Z,19.20
2022-10-23T21:34:12.775Z,19.10
2022-10-23T21:36:54.107Z,19.10
2022-10-23T21:39:29.093Z,19.10
2022-10-23T21:41:57.678Z,19.10
2022-10-23T21:44:25.745Z,21.60
2022-10-23T21:46:54.406Z,19.00
2022-10-23T21:49:23.688Z,19.00
2022-10-23T21:51:51.870Z,19.00
2022-10-23T21:54:19.834Z,19.00
2022-10-23T21:56:50.202Z,18.90
2022-10-23T21:59:20.685Z,20.30
2022-10-23T22:01:49.974Z,18.90
2022-10-23T22:04:20.268Z,18.90
2022-10-23T22:06:50.629Z,18.90
2022-10-23T22:09:21.188Z,20.30
2022-10-23T22:11:50.195Z,18.90
2022-10-23T22:14:18.203Z,18.90
2022-10-23T22:16:46.649Z,19.00
2022-10-23T22:19:16.643Z,18.90
2022-10-23T22:21:44.519Z,19.00
2022-10-23T22:24:14.153Z,19.00
2022-10-23T22:26:46.661Z,19.00
2022-10-23T22:29:16.840Z,19.00
2022-10-23T22:31:48.797Z,20.00
2022-10-23T22:34:27.162Z,20.40
2022-10-23T22:37:08.708Z,19.80
2022-10-23T22:39:38.028Z,20.20
2022-10-23T22:42:06.157Z,19.00
2022-10-23T22:44:34.164Z,19.00
2022-10-23T22:47:02.169Z,19.00
2022-10-23T22:49:30.116Z,19.00
2022-10-23T22:51:58.181Z,19.00
2022-10-23T22:54:26.057Z,19.00
2022-10-23T22:56:55.573Z,19.00
2022-10-23T22:59:23.810Z,19.00
2022-10-23T23:01:52.200Z,19.00
2022-10-23T23:07:09.134Z,19.00
2022-10-23T23:09:39.047Z,18.80
2022-10-23T23:12:10.123Z,19.00
2022-10-23T23:14:38.999Z,19.00
2022-10-23T23:17:08.048Z,19.00
2022-10-23T23:19:36.337Z,19.00
2022-10-23T23:22:04.770Z,19.00
2022-10-23T23:24:32.865Z,19.00
2022-10-23T23:27:00.896Z,19.60
2022-10-23T23:29:30.340Z,19.00
2022-10-23T23:31:58.410Z,18.90
2022-10-23T23:34:26.615Z,18.90
2022-10-23T23:36:54.470Z,18.90
2022-10-23T23:39:22.327Z,18.90
2022-10-23T23:41:50.370Z,18.90
2022-10-23T23:44:18.370Z,18.80
2022-10-23T23:46:47.883Z,20.20
2022-10-23T23:49:15.705Z,18.80
2022-10-23T23:51:43.626Z,18.90
2022-10-23T23:54:11.641Z,18.90
2022-10-23T23:56:39.766Z,18.90
2022-10-23T23:59:07.631Z,18.90
